Latest Weather Observations for St Kilda Harbour RMYS

IDV60801

Issued at 8:22 am EST Saturday 24 August 2019 (issued every 10 minutes, with the page automatically refreshed every 10 minutes)

About weather observations | Map of weather stations | Latest weather observations for VIC | Other Formats
Station Details ID: 086220 Name: ST KILDA HARBOUR - RMYS Lat: -37.86 Lon: 144.96 Height: 6.4 m
Data from the previous 72 hours. | See also: Recent months at St Kilda Harbour RMYS
Date/Time
EST
Temp
°C
App
Temp
°C
Dew
Point
°C
Rel
Hum
%
Delta-T
°C
Wind Press
QNH
hPa
Press
MSL
hPa
Rain since
9am
mm
Dir  Spd
km/h
Gust
km/h
Spd
kts
Gust
kts
24/08:00am - - - - - N 35 54 19 29 - - -
24/07:44am - - - - - N 30 50 16 27 - - -
24/07:30am - - - - - N 26 39 14 21 - - -
24/07:00am - - - - - N 30 39 16 21 - - -
24/06:30am - - - - - N 30 44 16 24 - - -
24/06:00am - - - - - N 33 44 18 24 - - -
24/05:30am - - - - - N 35 54 19 29 - - -
24/05:24am - - - - - N 33 54 18 29 - - -
24/05:00am - - - - - N 24 35 13 19 - - -
24/04:30am - - - - - N 32 44 17 24 - - -
24/04:12am - - - - - N 30 48 16 26 - - -
24/04:00am - - - - - N 28 39 15 21 - - -
24/03:33am - - - - - NNE 32 50 17 27 - - -
24/03:30am - - - - - NNE 33 50 18 27 - - -
24/03:00am - - - - - N 30 46 16 25 - - -
24/02:57am - - - - - N 28 46 15 25 - - -
24/02:30am - - - - - N 28 46 15 25 - - -
24/02:01am - - - - - N 33 52 18 28 - - -
24/02:00am - - - - - N 35 52 19 28 - - -
24/01:39am - - - - - N 30 50 16 27 - - -
24/01:30am - - - - - N 28 44 15 24 - - -
24/01:00am - - - - - N 30 52 16 28 - - -
24/12:49am - - - - - N 30 48 16 26 - - -
24/12:30am - - - - - N 33 48 18 26 - - -
24/12:03am - - - - - N 32 50 17 27 - - -
24/12:00am - - - - - N 33 50 18 27 - - -
 
Date/Time
EST
Temp
°C
App
Temp
°C
Dew
Point
°C
Rel
Hum
%
Delta-T
°C
Wind Press
QNH
hPa
Press
MSL
hPa
Rain since
9am
mm
Dir  Spd
km/h
Gust
km/h
Spd
kts
Gust
kts
23/11:30pm - - - - - N 35 54 19 29 - - -
23/11:18pm - - - - - N 32 50 17 27 - - -
23/11:00pm - - - - - N 22 35 12 19 - - -
23/10:30pm - - - - - N 26 39 14 21 - - -
23/10:00pm - - - - - NNE 13 24 7 13 - - -
23/09:30pm - - - - - N 17 32 9 17 - - -
23/09:00pm - - - - - N 24 33 13 18 - - -
23/08:30pm - - - - - NNW 26 39 14 21 - - -
23/08:00pm - - - - - NNW 24 35 13 19 - - -
23/07:30pm - - - - - N 24 39 13 21 - - -
23/07:01pm - - - - - N 28 46 15 25 - - -
23/07:00pm - - - - - N 26 46 14 25 - - -
23/06:42pm - - - - - N 28 46 15 25 - - -
23/06:30pm - - - - - N 24 43 13 23 - - -
23/06:00pm - - - - - N 30 44 16 24 - - -
23/05:30pm - - - - - N 26 44 14 24 - - -
23/05:00pm - - - - - N 30 50 16 27 - - -
23/04:43pm - - - - - N 30 50 16 27 - - -
23/04:30pm - - - - - N 33 50 18 27 - - -
23/04:06pm - - - - - N 30 52 16 28 - - -
23/04:00pm - - - - - N 30 46 16 25 - - -
23/03:30pm - - - - - N 37 59 20 32 - - -
23/03:09pm - - - - - N 32 50 17 27 - - -
23/03:00pm - - - - - N 35 48 19 26 - - -
23/02:31pm - - - - - N 28 52 15 28 - - -
23/02:30pm - - - - - N 28 43 15 23 - - -
23/02:00pm - - - - - N 26 39 14 21 - - -
23/01:35pm - - - - - N 30 50 16 27 - - -
23/01:30pm - - - - - N 33 50 18 27 - - -
23/01:00pm - - - - - N 20 35 11 19 - - -
23/12:30pm - - - - - N 17 30 9 16 - - -
23/12:00pm - - - - - NNW 11 17 6 9 - - -
23/11:30am - - - - - NW 11 19 6 10 - - -
23/11:00am - - - - - NW 13 22 7 12 - - -
23/10:30am - - - - - W 6 11 3 6 - - -
23/10:00am - - - - - NW 9 13 5 7 - - -
23/09:30am - - - - - NNW 7 13 4 7 - - -
23/09:00am - - - - - NNE 4 6 2 3 - - -
23/08:30am - - - - - NNE 6 9 3 5 - - -
23/08:00am - - - - - N 6 7 3 4 - - -
23/07:30am - - - - - NNE 4 6 2 3 - - -
23/07:00am - - - - - N 6 6 3 3 - - -
23/06:30am - - - - - N 6 7 3 4 - - -
23/06:00am - - - - - NNW 7 11 4 6 - - -
23/05:30am - - - - - NNW 6 7 3 4 - - -
23/05:00am - - - - - NNW 4 6 2 3 - - -
23/04:30am - - - - - N 6 7 3 4 - - -
23/04:00am - - - - - NW 9 11 5 6 - - -
23/03:30am - - - - - NNW 7 9 4 5 - - -
23/03:00am - - - - - N 6 9 3 5 - - -
23/02:30am - - - - - NW 6 7 3 4 - - -
23/02:00am - - - - - NW 6 7 3 4 - - -
23/01:30am - - - - - W 6 9 3 5 - - -
23/01:00am - - - - - W 9 13 5 7 - - -
23/12:30am - - - - - NW 9 13 5 7 - - -
23/12:00am - - - - - W 15 17 8 9 - - -
 
Date/Time
EST
Temp
°C
App
Temp
°C
Dew
Point
°C
Rel
Hum
%
Delta-T
°C
Wind Press
QNH
hPa
Press
MSL
hPa
Rain since
9am
mm
Dir  Spd
km/h
Gust
km/h
Spd
kts
Gust
kts
22/11:30pm - - - - - WSW 17 20 9 11 - - -
22/11:00pm - - - - - WSW 17 19 9 10 - - -
22/10:30pm - - - - - WSW 15 19 8 10 - - -
22/10:00pm - - - - - WSW 15 19 8 10 - - -
22/09:30pm - - - - - SW 11 15 6 8 - - -
22/09:00pm - - - - - SSW 11 15 6 8 - - -
22/08:30pm - - - - - SSW 15 17 8 9 - - -
22/08:00pm - - - - - S 17 20 9 11 - - -
22/07:30pm - - - - - SSW 20 24 11 13 - - -
22/07:00pm - - - - - S 20 24 11 13 - - -
22/06:30pm - - - - - S 24 28 13 15 - - -
22/06:00pm - - - - - S 26 30 14 16 - - -
22/05:30pm - - - - - S 24 28 13 15 - - -
22/05:00pm - - - - - S 24 28 13 15 - - -
22/04:30pm - - - - - S 26 30 14 16 - - -
22/04:00pm - - - - - SSW 22 30 12 16 - - -
22/03:30pm - - - - - SSW 28 37 15 20 - - -
22/03:00pm - - - - - SSW 24 30 13 16 - - -
22/02:30pm - - - - - SSW 22 26 12 14 - - -
22/02:00pm - - - - - SSW 26 32 14 17 - - -
22/01:30pm - - - - - S 24 30 13 16 - - -
22/01:00pm - - - - - S 32 39 17 21 - - -
22/12:30pm - - - - - S 32 37 17 20 - - -
22/12:00pm - - - - - SSW 35 50 19 27 - - -
22/11:30am - - - - - SSW 35 43 19 23 - - -
22/11:00am - - - - - SSW 37 46 20 25 - - -
22/10:30am - - - - - SSW 37 44 20 24 - - -
22/10:00am - - - - - SSW 37 52 20 28 - - -
22/09:30am - - - - - SW 35 41 19 22 - - -
22/09:00am - - - - - SW 33 41 18 22 - - -
22/08:30am - - - - - SW 43 52 23 28 - - -
22/08:00am - - - - - SSW 41 50 22 27 - - -
22/07:30am - - - - - SSW 35 43 19 23 - - -
22/07:00am - - - - - SW 33 41 18 22 - - -
22/06:30am - - - - - SW 32 39 17 21 - - -
22/06:00am - - - - - SW 32 50 17 27 - - -
22/05:30am - - - - - SW 35 43 19 23 - - -
22/05:00am - - - - - SW 30 41 16 22 - - -
22/04:30am - - - - - W 20 22 11 12 - - -
22/04:00am - - - - - WSW 20 24 11 13 - - -
22/03:30am - - - - - WSW 22 30 12 16 - - -
22/03:00am - - - - - WSW 30 37 16 20 - - -
22/02:30am - - - - - WSW 33 41 18 22 - - -
22/02:00am - - - - - WSW 37 52 20 28 - - -
22/01:30am - - - - - WSW 41 48 22 26 - - -
22/01:00am - - - - - WSW 39 46 21 25 - - -
22/12:30am - - - - - WSW 43 54 23 29 - - -
22/12:13am - - - - - W 48 69 26 37 - - -
22/12:00am - - - - - W 48 61 26 33 - - -
 
Date/Time
EST
Temp
°C
App
Temp
°C
Dew
Point
°C
Rel
Hum
%
Delta-T
°C
Wind Press
QNH
hPa
Press
MSL
hPa
Rain since
9am
mm
Dir  Spd
km/h
Gust
km/h
Spd
kts
Gust
kts
21/11:32pm - - - - - W 41 61 22 33 - - -
21/11:30pm - - - - - W 43 57 23 31 - - -
21/11:06pm - - - - - W 44 63 24 34 - - -
21/11:00pm - - - - - W 44 56 24 30 - - -
21/10:30pm - - - - - W 44 63 24 34 - - -
21/10:14pm - - - - - W 50 72 27 39 - - -
21/10:00pm - - - - - W 46 57 25 31 - - -
21/09:50pm - - - - - W 44 65 24 35 - - -
21/09:30pm - - - - - W 43 56 23 30 - - -
21/09:00pm - - - - - W 41 56 22 30 - - -
21/08:30pm - - - - - W 41 57 22 31 - - -
21/08:22pm - - - - - W 39 57 21 31 - - -
21/08:00pm - - - - - W 33 46 18 25 - - -
21/07:30pm - - - - - WNW 39 48 21 26 - - -
21/07:00pm - - - - - WNW 32 43 17 23 - - -
21/06:30pm - - - - - W 37 46 20 25 - - -
21/06:00pm - - - - - W 44 61 24 33 - - -
21/05:50pm - - - - - W 32 50 17 27 - - -
21/05:30pm - - - - - WSW 37 46 20 25 - - -
21/05:00pm - - - - - WSW 39 48 21 26 - - -
21/04:30pm - - - - - WSW 43 57 23 31 - - -
21/04:00pm - - - - - WSW 35 41 19 22 - - -
21/03:30pm - - - - - WSW 32 37 17 20 - - -
21/03:00pm - - - - - WSW 39 48 21 26 - - -
21/02:30pm - - - - - WSW 32 39 17 21 - - -
21/02:00pm - - - - - WSW 33 39 18 21 - - -
21/01:30pm - - - - - WSW 41 48 22 26 - - -
21/01:00pm - - - - - WSW 26 33 14 18 - - -
21/12:30pm - - - - - WSW 39 46 21 25 - - -
21/12:00pm - - - - - WSW 35 52 19 28 - - -
21/11:30am - - - - - WSW 33 43 18 23 - - -
21/11:00am - - - - - WSW 35 43 19 23 - - -
21/10:30am - - - - - WSW 33 44 18 24 - - -
21/10:00am - - - - - WSW 35 46 19 25 - - -
21/09:30am - - - - - WSW 30 37 16 20 - - -
21/09:00am - - - - - W 37 44 20 24 - - -
21/08:30am - - - - - WSW 37 46 20 25 - - -

Other formats

Comma delimited format used in spreadsheet applications
http://www.bom.gov.au/fwo/IDV60801/IDV60801.95864.axf

JavaScript Object Notation format (JSON) in row-major order
http://www.bom.gov.au/fwo/IDV60801/IDV60801.95864.json

Data quality

Most of these data are generated automatically and are frequently updated. Quality checks on data are not normally performed. It is possible for incorrect values to appear. Refer to information at About Latest Weather Observations and please check the disclaimer before using these data.